createdAt,value
2022-09-28T00:02:14.913Z,0.50
2022-09-28T00:04:41.771Z,0.30
2022-09-28T00:07:08.411Z,0.55
2022-09-28T00:09:35.047Z,0.45
2022-09-28T00:12:01.860Z,0.40
2022-09-28T00:14:28.534Z,0.50
2022-09-28T00:16:55.308Z,0.40
2022-09-28T00:19:22.002Z,0.30
2022-09-28T00:21:48.793Z,0.50
2022-09-28T00:24:25.228Z,0.40
2022-09-28T00:26:56.009Z,0.43
2022-09-28T00:29:29.938Z,0.35
2022-09-28T00:32:00.115Z,0.70
2022-09-28T00:34:27.360Z,0.73
2022-09-28T00:36:54.047Z,0.30
2022-09-28T00:39:21.443Z,0.30
2022-09-28T00:41:48.331Z,0.40
2022-09-28T00:44:35.849Z,0.43
2022-09-28T00:47:39.129Z,0.30
2022-09-28T00:50:09.169Z,0.40
2022-09-28T00:52:41.086Z,0.45
2022-09-28T00:55:11.157Z,0.35
2022-09-28T00:57:40.668Z,0.50
2022-09-28T01:00:08.301Z,0.30
2022-09-28T01:02:35.146Z,0.40
2022-09-28T01:05:04.163Z,0.30
2022-09-28T01:07:32.386Z,0.40
2022-09-28T01:09:59.357Z,0.20
2022-09-28T01:12:25.997Z,0.38
2022-09-28T01:14:53.035Z,0.47
2022-09-28T01:17:33.267Z,0.60
2022-09-28T01:20:28.193Z,0.30
2022-09-28T01:23:25.418Z,0.60
2022-09-28T01:26:26.910Z,0.30
2022-09-28T01:29:03.533Z,0.30
2022-09-28T01:31:33.642Z,0.50
2022-09-28T01:34:19.190Z,0.60
2022-09-28T01:36:52.184Z,0.35
2022-09-28T01:39:26.604Z,0.52
2022-09-28T01:41:57.591Z,0.80
2022-09-28T01:44:24.562Z,0.70
2022-09-28T01:46:52.534Z,0.55
2022-09-28T01:49:34.911Z,0.80
2022-09-28T01:52:10.912Z,0.90
2022-09-28T01:54:43.194Z,0.80
2022-09-28T01:57:32.441Z,0.80
2022-09-28T02:00:10.804Z,1.00
2022-09-28T02:02:48.474Z,0.77
2022-09-28T02:05:25.650Z,0.65
2022-09-28T02:08:02.529Z,0.60
2022-09-28T02:10:34.060Z,0.70
2022-09-28T02:13:14.040Z,0.80
2022-09-28T02:15:54.020Z,0.98
2022-09-28T02:18:20.834Z,0.75
2022-09-28T02:20:53.658Z,0.60
2022-09-28T02:23:22.658Z,0.80
2022-09-28T02:25:56.010Z,0.75
2022-09-28T02:28:22.694Z,0.90
2022-09-28T02:30:49.372Z,1.00
2022-09-28T02:33:20.150Z,0.68
2022-09-28T02:35:47.308Z,0.57
2022-09-28T02:38:15.186Z,0.75
2022-09-28T02:40:44.351Z,0.60
2022-09-28T02:43:32.786Z,0.50
2022-09-28T02:46:17.963Z,0.65
2022-09-28T02:51:58.246Z,0.50
2022-09-28T02:54:24.880Z,0.68
2022-09-28T02:56:58.657Z,0.50
2022-09-28T03:00:00.212Z,0.63
2022-09-28T03:02:48.634Z,0.40
2022-09-28T03:05:19.888Z,0.35
2022-09-28T03:07:59.514Z,0.50
2022-09-28T03:10:33.907Z,0.80
2022-09-28T03:13:00.967Z,0.43
2022-09-28T03:15:29.878Z,0.57
2022-09-28T03:17:57.972Z,0.60
2022-09-28T03:20:25.811Z,0.60
2022-09-28T03:23:12.742Z,0.50
2022-09-28T03:25:39.522Z,0.52
2022-09-28T03:28:06.194Z,0.50
2022-09-28T03:30:32.833Z,0.52
2022-09-28T03:33:00.411Z,0.70
2022-09-28T03:35:27.108Z,1.15
2022-09-28T03:37:57.111Z,1.20
2022-09-28T03:40:23.935Z,0.90
2022-09-28T03:42:50.812Z,0.80
2022-09-28T03:45:17.459Z,1.10
2022-09-28T03:47:47.610Z,1.08
2022-09-28T03:50:15.591Z,1.30
2022-09-28T03:52:42.499Z,1.10
2022-09-28T03:55:09.846Z,1.20
2022-09-28T03:57:36.947Z,1.15
2022-09-28T04:00:05.521Z,1.23
2022-09-28T04:02:33.534Z,1.20
2022-09-28T04:05:00.280Z,1.40
2022-09-28T04:07:30.906Z,1.23
2022-09-28T04:09:58.211Z,1.50
2022-09-28T04:12:24.948Z,1.70
2022-09-28T04:14:51.615Z,1.50
2022-09-28T04:17:18.396Z,1.50
2022-09-28T04:19:45.107Z,1.80
2022-09-28T04:22:11.795Z,2.08
2022-09-28T04:24:39.096Z,2.05
2022-09-28T04:27:24.280Z,1.90
2022-09-28T04:32:17.598Z,1.70
2022-09-28T04:34:44.627Z,1.70
2022-09-28T04:37:11.436Z,1.67
2022-09-28T04:39:38.179Z,1.75
2022-09-28T04:42:05.570Z,1.70
2022-09-28T04:44:32.311Z,1.77
2022-09-28T04:47:01.751Z,1.80
2022-09-28T04:49:31.751Z,1.92
2022-09-28T04:51:58.413Z,2.10
2022-09-28T04:54:25.060Z,2.30
2022-09-28T04:56:52.881Z,2.70
2022-09-28T04:59:19.560Z,2.85
2022-09-28T05:01:47.503Z,2.47
2022-09-28T05:04:14.141Z,2.95
2022-09-28T05:06:40.970Z,2.83
2022-09-28T05:09:09.455Z,3.83
2022-09-28T05:11:36.195Z,3.88
2022-09-28T05:14:02.857Z,3.92
2022-09-28T05:16:30.990Z,4.32
2022-09-28T05:18:57.765Z,5.68
2022-09-28T05:21:26.338Z,4.65
2022-09-28T05:23:56.112Z,4.30
2022-09-28T05:26:23.182Z,5.05
2022-09-28T05:28:49.852Z,4.90
2022-09-28T05:31:16.704Z,6.53
2022-09-28T05:33:43.449Z,6.03
2022-09-28T05:36:11.133Z,6.68
2022-09-28T05:38:37.926Z,10.40
2022-09-28T05:41:06.683Z,6.53
2022-09-28T05:43:33.988Z,7.40
2022-09-28T05:46:00.773Z,8.57
2022-09-28T05:48:28.264Z,9.57
2022-09-28T05:50:55.155Z,11.43
2022-09-28T05:53:22.125Z,10.95
2022-09-28T05:55:48.909Z,19.58
2022-09-28T05:58:15.807Z,9.73
2022-09-28T06:00:43.038Z,8.70
2022-09-28T06:03:14.097Z,8.70
2022-09-28T06:05:41.173Z,7.78
2022-09-28T06:08:10.490Z,11.80
2022-09-28T06:10:37.420Z,18.35
2022-09-28T06:13:04.153Z,32.35
2022-09-28T06:15:33.627Z,12.20
2022-09-28T06:18:03.760Z,9.43
2022-09-28T06:20:33.285Z,5.95
2022-09-28T06:23:00.303Z,5.97
2022-09-28T06:25:30.018Z,4.72
2022-09-28T06:28:02.325Z,3.63
2022-09-28T06:30:31.027Z,2.95
2022-09-28T06:32:59.376Z,3.25
2022-09-28T06:35:28.364Z,3.42
2022-09-28T06:37:55.037Z,4.30
2022-09-28T06:40:22.415Z,4.60
2022-09-28T06:42:56.126Z,4.75
2022-09-28T06:45:25.293Z,5.25
2022-09-28T06:48:01.953Z,5.07
2022-09-28T06:50:32.318Z,5.13
2022-09-28T06:52:59.848Z,4.93
2022-09-28T06:55:27.333Z,5.78
2022-09-28T06:57:59.493Z,6.05
2022-09-28T07:00:33.870Z,6.93
2022-09-28T07:03:02.611Z,6.13
2022-09-28T07:05:29.968Z,5.68
2022-09-28T07:07:57.207Z,5.68
2022-09-28T07:10:25.231Z,5.85
2022-09-28T07:12:52.251Z,5.53
2022-09-28T07:15:19.358Z,5.70
2022-09-28T07:17:58.657Z,5.20
2022-09-28T07:20:27.898Z,5.57
2022-09-28T07:22:55.619Z,5.18
2022-09-28T07:25:23.385Z,5.35
2022-09-28T07:27:50.143Z,5.55
2022-09-28T07:30:17.138Z,5.63
2022-09-28T07:32:45.720Z,5.13
2022-09-28T07:35:12.510Z,5.43
2022-09-28T07:37:39.225Z,5.63
2022-09-28T07:40:26.682Z,4.85
2022-09-28T07:42:53.792Z,5.25
2022-09-28T07:45:23.785Z,6.00
2022-09-28T07:47:55.341Z,6.13
2022-09-28T07:50:22.450Z,5.68
2022-09-28T07:52:49.416Z,6.35
2022-09-28T07:55:16.206Z,7.00
2022-09-28T07:57:43.259Z,6.78
2022-09-28T08:00:10.807Z,6.38
2022-09-28T08:02:37.805Z,6.38
2022-09-28T08:05:05.217Z,6.85
2022-09-28T08:07:32.546Z,7.32
2022-09-28T08:09:59.226Z,8.15
2022-09-28T08:12:25.979Z,8.25
2022-09-28T08:14:52.706Z,8.38
2022-09-28T08:17:19.443Z,8.55
2022-09-28T08:20:04.836Z,8.68
2022-09-28T08:22:32.308Z,9.32
2022-09-28T08:24:59.093Z,9.25
2022-09-28T08:27:25.855Z,9.07
2022-09-28T08:29:52.630Z,10.43
2022-09-28T08:32:19.883Z,10.18
2022-09-28T08:34:46.578Z,9.77
2022-09-28T08:37:13.356Z,9.50
2022-09-28T08:39:40.113Z,10.00
2022-09-28T08:42:21.939Z,8.45
2022-09-28T08:44:52.135Z,7.53
2022-09-28T08:47:42.308Z,7.80
2022-09-28T08:50:15.050Z,7.50
2022-09-28T08:52:42.374Z,6.63
2022-09-28T08:55:14.779Z,6.43
2022-09-28T08:57:58.134Z,5.90
2022-09-28T09:01:00.836Z,5.65
2022-09-28T09:03:41.892Z,6.32
2022-09-28T09:06:26.868Z,5.43
2022-09-28T09:09:08.487Z,5.38
2022-09-28T09:12:01.960Z,4.80
2022-09-28T09:14:53.677Z,4.20
2022-09-28T09:17:50.001Z,4.22
2022-09-28T09:21:02.344Z,4.25
2022-09-28T09:23:39.253Z,4.30
2022-09-28T09:26:23.805Z,4.30
2022-09-28T09:29:17.045Z,3.85
2022-09-28T09:31:50.149Z,3.38
2022-09-28T09:34:32.984Z,3.80
2022-09-28T09:37:21.628Z,3.78
2022-09-28T09:40:07.386Z,3.40
2022-09-28T09:43:01.562Z,3.97
2022-09-28T09:45:51.461Z,3.67
2022-09-28T09:48:35.355Z,3.87
2022-09-28T09:51:21.494Z,3.78
2022-09-28T09:53:59.973Z,3.53
2022-09-28T09:57:05.376Z,4.00
2022-09-28T09:59:36.518Z,3.35
2022-09-28T10:02:22.718Z,3.42
2022-09-28T10:04:52.649Z,3.60
2022-09-28T10:07:24.854Z,3.35
2022-09-28T10:09:56.277Z,3.33
2022-09-28T10:12:24.017Z,3.17
2022-09-28T10:14:50.904Z,3.70
2022-09-28T10:17:19.758Z,3.30
2022-09-28T10:19:46.664Z,2.88
2022-09-28T10:22:19.627Z,3.45
2022-09-28T10:24:49.765Z,3.08
2022-09-28T10:27:25.714Z,2.88
2022-09-28T10:30:09.630Z,2.40
2022-09-28T10:32:38.929Z,2.63
2022-09-28T10:35:25.123Z,2.45
2022-09-28T10:37:56.691Z,2.50
2022-09-28T10:40:43.409Z,2.55
2022-09-28T10:43:38.379Z,2.20
2022-09-28T10:46:07.718Z,2.03
2022-09-28T10:48:48.865Z,2.30
2022-09-28T10:51:17.057Z,2.42
2022-09-28T10:54:01.505Z,2.13
2022-09-28T10:56:35.468Z,2.20
2022-09-28T10:59:02.209Z,2.43
2022-09-28T11:01:32.976Z,2.03
2022-09-28T11:04:02.317Z,2.15
2022-09-28T11:06:31.465Z,2.42
2022-09-28T11:09:01.083Z,1.88
2022-09-28T11:11:29.581Z,2.30
2022-09-28T11:14:01.064Z,2.60
2022-09-28T11:16:30.705Z,2.10
2022-09-28T11:19:06.074Z,1.90
2022-09-28T11:21:41.994Z,2.13
2022-09-28T11:24:18.861Z,2.50
2022-09-28T11:26:48.533Z,2.70
2022-09-28T11:29:37.936Z,2.40
2022-09-28T11:32:06.331Z,1.90
2022-09-28T11:34:57.867Z,1.83
2022-09-28T11:37:40.564Z,1.67
2022-09-28T11:40:46.392Z,1.70
2022-09-28T11:45:52.616Z,1.70
2022-09-28T11:48:24.980Z,1.50
2022-09-28T11:51:04.394Z,1.70
2022-09-28T11:53:37.174Z,1.75
2022-09-28T11:56:15.622Z,1.33
2022-09-28T11:58:51.075Z,1.63
2022-09-28T12:01:39.273Z,1.63
2022-09-28T12:04:18.467Z,0.82
2022-09-28T12:07:09.091Z,1.05
2022-09-28T12:10:03.764Z,1.30
2022-09-28T12:12:55.043Z,1.30
2022-09-28T12:15:53.041Z,1.27
2022-09-28T12:18:26.144Z,1.00
2022-09-28T12:21:05.084Z,1.38
2022-09-28T12:23:35.735Z,1.10
2022-09-28T12:26:12.612Z,1.70
2022-09-28T12:28:46.158Z,1.30
2022-09-28T12:31:20.521Z,1.25
2022-09-28T12:33:49.430Z,1.30
2022-09-28T12:36:30.149Z,1.88
2022-09-28T12:39:18.961Z,1.40
2022-09-28T12:42:25.457Z,2.10
2022-09-28T12:45:08.665Z,1.98
2022-09-28T12:48:11.579Z,1.75
2022-09-28T12:50:57.427Z,1.50
2022-09-28T12:54:03.174Z,1.25
2022-09-28T12:56:50.639Z,1.50
2022-09-28T12:59:32.307Z,1.30
2022-09-28T13:02:32.685Z,1.30
2022-09-28T13:05:15.564Z,1.33
2022-09-28T13:08:05.127Z,1.35
2022-09-28T13:10:44.407Z,1.40
2022-09-28T13:13:30.487Z,1.17
2022-09-28T13:16:13.198Z,1.30
2022-09-28T13:18:50.156Z,1.40
2022-09-28T13:21:35.169Z,1.40
2022-09-28T13:24:27.850Z,1.33
2022-09-28T13:26:52.708Z,1.20
2022-09-28T13:29:20.507Z,1.42
2022-09-28T13:31:50.679Z,1.45
2022-09-28T13:34:24.984Z,1.35
2022-09-28T13:37:20.379Z,1.35
2022-09-28T13:39:59.012Z,1.02
2022-09-28T13:42:53.171Z,1.40
2022-09-28T13:45:26.054Z,1.40
2022-09-28T13:47:52.739Z,1.60
2022-09-28T13:50:46.528Z,1.17
2022-09-28T13:53:25.965Z,1.10
2022-09-28T13:56:04.649Z,1.08
2022-09-28T13:58:43.765Z,1.30
2022-09-28T14:01:39.817Z,1.33
2022-09-28T14:04:21.830Z,1.35
2022-09-28T14:06:57.705Z,1.52
2022-09-28T14:09:38.977Z,1.23
2022-09-28T14:12:27.159Z,1.10
2022-09-28T14:14:54.158Z,1.40
2022-09-28T14:17:23.835Z,0.98
2022-09-28T14:20:08.150Z,1.23
2022-09-28T14:23:14.192Z,1.13
2022-09-28T14:26:04.006Z,1.30
2022-09-28T14:28:49.212Z,1.20
2022-09-28T14:31:24.614Z,1.08
2022-09-28T14:34:01.237Z,1.08
2022-09-28T14:36:55.607Z,1.10
2022-09-28T14:39:46.649Z,1.02
2022-09-28T14:42:16.542Z,0.80
2022-09-28T14:45:07.203Z,1.17
2022-09-28T14:47:44.529Z,0.80
2022-09-28T14:50:20.452Z,0.93
2022-09-28T14:52:50.883Z,3.20
2022-09-28T14:55:23.689Z,1.42
2022-09-28T14:58:04.400Z,0.90
2022-09-28T15:00:32.015Z,0.93
2022-09-28T15:03:06.735Z,0.90
2022-09-28T15:05:43.796Z,1.35
2022-09-28T15:08:11.986Z,1.15
2022-09-28T15:10:45.236Z,1.33
2022-09-28T15:13:40.721Z,1.00
2022-09-28T15:19:24.339Z,0.88
2022-09-28T15:21:51.470Z,1.05
2022-09-28T15:24:33.766Z,1.17
2022-09-28T15:27:02.050Z,1.05
2022-09-28T15:29:31.481Z,2.65
2022-09-28T15:31:58.937Z,1.23
2022-09-28T15:34:52.709Z,0.80
2022-09-28T15:37:23.191Z,1.08
2022-09-28T15:39:51.889Z,1.23
2022-09-28T15:42:18.962Z,1.08
2022-09-28T15:45:10.724Z,1.23
2022-09-28T15:47:39.916Z,0.93
2022-09-28T15:50:09.219Z,1.10
2022-09-28T15:52:39.776Z,1.10
2022-09-28T15:55:31.929Z,1.10
2022-09-28T15:58:26.298Z,1.15
2022-09-28T16:01:35.863Z,1.25
2022-09-28T16:04:30.865Z,1.38
2022-09-28T16:07:12.536Z,1.45
2022-09-28T16:10:11.642Z,1.10
2022-09-28T16:12:38.248Z,1.05
2022-09-28T16:15:29.569Z,1.13
2022-09-28T16:18:01.452Z,1.05
2022-09-28T16:20:31.992Z,1.08
2022-09-28T16:23:05.966Z,1.00
2022-09-28T16:25:37.099Z,1.10
2022-09-28T16:28:04.320Z,1.35
2022-09-28T16:30:33.578Z,1.17
2022-09-28T16:33:26.712Z,1.33
2022-09-28T16:35:53.357Z,1.30
2022-09-28T16:38:20.888Z,1.30
2022-09-28T16:40:53.752Z,1.63
2022-09-28T16:43:26.895Z,1.42
2022-09-28T16:46:01.250Z,1.42
2022-09-28T16:48:30.356Z,8.23
2022-09-28T16:50:58.082Z,7.28
2022-09-28T16:53:43.828Z,4.03
2022-09-28T16:56:11.454Z,2.22
2022-09-28T16:58:39.118Z,1.90
2022-09-28T17:01:09.764Z,2.30
2022-09-28T17:03:36.623Z,2.90
2022-09-28T17:06:06.273Z,2.50
2022-09-28T17:08:35.483Z,2.15
2022-09-28T17:11:23.393Z,2.85
2022-09-28T17:13:48.904Z,2.33
2022-09-28T17:16:42.657Z,3.13
2022-09-28T17:19:23.538Z,3.22
2022-09-28T17:21:51.642Z,2.60
2022-09-28T17:24:19.254Z,2.30
2022-09-28T17:26:47.456Z,2.55
2022-09-28T17:29:15.411Z,2.50
2022-09-28T17:31:43.297Z,2.38
2022-09-28T17:34:11.376Z,1.98
2022-09-28T17:36:38.162Z,2.30
2022-09-28T17:39:05.414Z,1.90
2022-09-28T17:41:32.518Z,1.95
2022-09-28T17:44:00.168Z,2.92
2022-09-28T17:46:28.464Z,2.42
2022-09-28T17:48:59.365Z,2.33
2022-09-28T17:51:27.755Z,2.10
2022-09-28T17:53:56.097Z,2.05
2022-09-28T17:56:26.403Z,2.22
2022-09-28T17:58:57.344Z,2.67
2022-09-28T18:01:24.134Z,2.72
2022-09-28T18:03:50.951Z,2.97
2022-09-28T18:06:22.694Z,2.60
2022-09-28T18:08:49.981Z,3.00
2022-09-28T18:11:19.376Z,3.63
2022-09-28T18:13:46.927Z,4.03
2022-09-28T18:16:13.898Z,4.68
2022-09-28T18:18:41.006Z,4.10
2022-09-28T18:21:08.302Z,3.00
2022-09-28T18:23:36.782Z,3.40
2022-09-28T18:26:04.251Z,4.65
2022-09-28T18:28:31.185Z,4.60
2022-09-28T18:30:57.955Z,4.88
2022-09-28T18:33:24.630Z,5.10
2022-09-28T18:35:53.513Z,4.63
2022-09-28T18:38:21.078Z,4.00
2022-09-28T18:40:48.382Z,4.30
2022-09-28T18:43:15.418Z,3.60
2022-09-28T18:45:42.181Z,3.10
2022-09-28T18:48:09.106Z,2.67
2022-09-28T18:50:36.113Z,2.20
2022-09-28T18:53:12.365Z,3.30
2022-09-28T18:55:40.497Z,5.53
2022-09-28T18:58:11.532Z,5.60
2022-09-28T19:00:40.267Z,4.63
2022-09-28T19:03:08.097Z,4.63
2022-09-28T19:05:35.049Z,3.10
2022-09-28T19:08:02.253Z,2.30
2022-09-28T19:10:29.086Z,2.10
2022-09-28T19:12:55.779Z,2.03
2022-09-28T19:15:22.759Z,2.10
2022-09-28T19:17:50.128Z,2.33
2022-09-28T19:20:17.054Z,2.15
2022-09-28T19:22:44.265Z,1.85
2022-09-28T19:25:12.590Z,2.10
2022-09-28T19:27:39.472Z,2.05
2022-09-28T19:30:06.985Z,2.50
2022-09-28T19:32:33.679Z,2.22
2022-09-28T19:35:00.481Z,1.80
2022-09-28T19:37:27.125Z,2.00
2022-09-28T19:39:53.857Z,1.90
2022-09-28T19:42:20.622Z,1.92
2022-09-28T19:44:47.488Z,1.65
2022-09-28T19:47:14.190Z,1.88
2022-09-28T19:49:41.594Z,2.20
2022-09-28T19:52:15.622Z,1.98
2022-09-28T19:54:57.235Z,1.98
2022-09-28T19:57:25.896Z,1.75
2022-09-28T19:59:54.979Z,1.88
2022-09-28T20:02:23.603Z,1.70
2022-09-28T20:04:50.705Z,1.90
2022-09-28T20:07:17.455Z,2.00
2022-09-28T20:09:44.282Z,2.20
2022-09-28T20:12:11.201Z,1.80
2022-09-28T20:14:40.271Z,2.33
2022-09-28T20:17:07.668Z,1.70
2022-09-28T20:19:35.072Z,1.98
2022-09-28T20:22:03.018Z,2.10
2022-09-28T20:24:31.277Z,2.05
2022-09-28T20:26:58.182Z,2.05
2022-09-28T20:29:25.155Z,2.10
2022-09-28T20:31:52.040Z,2.08
2022-09-28T20:34:18.927Z,2.40
2022-09-28T20:36:45.598Z,2.17
2022-09-28T20:39:13.057Z,2.03
2022-09-28T20:41:40.290Z,1.73
2022-09-28T20:44:07.702Z,1.73
2022-09-28T20:46:35.311Z,1.90
2022-09-28T20:49:02.599Z,1.80
2022-09-28T20:51:29.307Z,2.10
2022-09-28T20:53:57.347Z,2.20
2022-09-28T20:56:29.173Z,2.22
2022-09-28T20:58:56.836Z,2.20
2022-09-28T21:01:28.630Z,2.10
2022-09-28T21:04:03.083Z,2.05
2022-09-28T21:06:35.423Z,2.08
2022-09-28T21:09:02.907Z,2.08
2022-09-28T21:11:30.039Z,1.90
2022-09-28T21:13:58.563Z,2.08
2022-09-28T21:16:26.715Z,1.98
2022-09-28T21:18:53.625Z,2.05
2022-09-28T21:21:21.320Z,2.17
2022-09-28T21:23:48.920Z,1.73
2022-09-28T21:26:24.618Z,1.90
2022-09-28T21:29:02.916Z,1.90
2022-09-28T21:31:38.536Z,1.67
2022-09-28T21:34:05.347Z,1.80
2022-09-28T21:36:32.094Z,1.50
2022-09-28T21:38:58.850Z,2.00
2022-09-28T21:41:26.037Z,2.03
2022-09-28T21:43:53.071Z,1.90
2022-09-28T21:46:19.888Z,1.67
2022-09-28T21:48:50.460Z,1.65
2022-09-28T21:51:17.650Z,1.50
2022-09-28T21:53:44.332Z,1.70
2022-09-28T21:56:12.298Z,1.70
2022-09-28T21:58:40.162Z,1.90
2022-09-28T22:01:19.447Z,1.88
2022-09-28T22:03:50.440Z,1.40
2022-09-28T22:06:19.003Z,1.75
2022-09-28T22:08:46.827Z,1.80
2022-09-28T22:11:16.161Z,1.80
2022-09-28T22:13:57.175Z,1.83
2022-09-28T22:16:26.494Z,1.67
2022-09-28T22:18:53.484Z,1.80
2022-09-28T22:21:23.480Z,1.50
2022-09-28T22:23:51.023Z,1.75
2022-09-28T22:26:20.853Z,1.60
2022-09-28T22:28:59.001Z,1.60
2022-09-28T22:31:31.751Z,1.52
2022-09-28T22:33:59.098Z,1.80
2022-09-28T22:36:27.821Z,1.73
2022-09-28T22:38:55.438Z,1.63
2022-09-28T22:41:22.411Z,1.48
2022-09-28T22:43:51.537Z,1.40
2022-09-28T22:46:21.190Z,1.45
2022-09-28T22:48:53.010Z,1.40
2022-09-28T22:51:20.292Z,1.50
2022-09-28T22:53:47.348Z,1.67
2022-09-28T22:56:18.825Z,1.33
2022-09-28T22:58:46.304Z,1.20
2022-09-28T23:01:25.023Z,1.40
2022-09-28T23:03:52.926Z,1.55
2022-09-28T23:06:21.437Z,1.40
2022-09-28T23:08:51.323Z,1.48
2022-09-28T23:11:18.757Z,1.40
2022-09-28T23:13:52.825Z,2.00
2022-09-28T23:16:20.542Z,1.38
2022-09-28T23:18:49.383Z,1.60
2022-09-28T23:21:18.775Z,1.60
2022-09-28T23:23:46.526Z,1.35
2022-09-28T23:26:18.538Z,2.20
2022-09-28T23:28:45.622Z,1.92
2022-09-28T23:31:15.854Z,1.90
2022-09-28T23:33:42.814Z,2.53
2022-09-28T23:36:10.741Z,2.13
2022-09-28T23:38:37.619Z,2.00
2022-09-28T23:41:04.460Z,2.10
2022-09-28T23:43:31.291Z,1.88
2022-09-28T23:45:58.019Z,1.67
2022-09-28T23:48:25.166Z,1.60
2022-09-28T23:50:51.808Z,1.50
2022-09-28T23:53:18.506Z,1.67
2022-09-28T23:55:45.369Z,1.83
2022-09-28T23:58:12.369Z,1.70
